West Bend, WI

02:40 PM CDT die 25o October, anno 2014 (GMT -0500)
Infinity Networking | Change Station
CLOSE
Current Station
Personal Weather Stations
Location: WestBend, WI
Elevation: 921 ft
Nearby Weather Stations

Elev 921 ft 43.43 °N, 88.16 °W | Updated 10 seconds ago

Clear
Serena
64.7 °F
Feels Like 64.7 °F
N
4.0
Ventus Variabilis Ventus from Magis Zephyrus quam Aquilo
Gusts 10.0 mph

Hodie
High -- | Low -- °F
--% Chance of Precip.
Yesterday
High -- | Low -- °F
Precip. -- in
7:19 AM 5:53 PM
Waxing Crescent, 4% visible
Pressio 29.87 in
Visibilitas 10.0 milia passuum
Clouds Serena
Frigus in quo Ros apparet 30 °F
Umor 27%
Rainfall 0.00 in
Snow Depth Not available.
UV 0.0 out of 12
Pollen 2.30 out of 12
Air Quality Not available.
Flu Activity Sporadic
METAR KETB 251915Z AUTO 29018G28KT 10SM CLR 18/M05 A2987 RMK AO2

More Conditions Fewer Conditions

Pressio 29.87 in
Visibilitas 10.0 milia passuum
Clouds Serena
Frigus in quo Ros apparet 30 °F
Umor 27%
Rainfall 0.00 in
Snow Depth Not available.
UV 0.0 out of 12
Pollen 2.30 out of 12
Air Quality Not available.
Flu Activity Sporadic
METAR KETB 251915Z AUTO 29018G28KT 10SM CLR 18/M05 A2987 RMK AO2

More Conditions Fewer Conditions

10-Day Weather Forecast

Almanac

Astronomy

Oct. 25, 2014 Rise Set
Actual Time 7:19 AM CDT 5:53 PM CDT
Civil Twilight 6:49 AM CDT 6:23 PM CDT
Nautical Twilight 6:16 AM CDT 6:56 PM CDT
Astronomical Twilight 5:43 AM CDT 7:29 PM CDT
Moon 8:59 AM CDT 7:13 PM CDT
Length Of Visible Light 11h 33m
Length of Day
10h 34m
Tomorrow will be 2m 44s shorter.
Waxing Crescent, 4% of the Moon is Illuminated
Hodie
Waxing Crescent
Oct 30
First Quarter
Nov 6
Full
Nov 14
Last Quarter
Nov 22
New

Today's Extremes

State Highs State Lows

Community

WunderPhotos

Upload Photos

1,764,972 photos uploaded!

Nearby

Snow Depth

Station Depth Elevation
No new snow has been reported.

Earthquake Activity

City Distance Mag. Time & Date
No recent earthquake activity has been reported nearby.
Minimum magnitude displayed is 2.5.

Coastal Water Temperatures

Locus Calor
No Stations Reporting

Nearby Weather Stations